sensor_id;sensor_type;location;lat;lon;timestamp;temperature;humidity
60848;DHT22;46681;47.696;9.140;2023-02-21T00:02:18;9.70;52.60
60848;DHT22;46681;47.696;9.140;2023-02-21T00:04:44;9.80;52.70
60848;DHT22;46681;47.696;9.140;2023-02-21T00:07:09;9.70;52.50
60848;DHT22;46681;47.696;9.140;2023-02-21T00:09:37;9.70;52.50
60848;DHT22;46681;47.696;9.140;2023-02-21T00:12:03;9.70;52.60
60848;DHT22;46681;47.696;9.140;2023-02-21T00:14:29;9.70;52.50
60848;DHT22;46681;47.696;9.140;2023-02-21T00:16:54;9.70;52.40
60848;DHT22;46681;47.696;9.140;2023-02-21T00:19:20;9.70;52.50
60848;DHT22;46681;47.696;9.140;2023-02-21T00:21:45;9.70;52.40
60848;DHT22;46681;47.696;9.140;2023-02-21T00:24:13;9.70;52.90
60848;DHT22;46681;47.696;9.140;2023-02-21T00:26:39;9.60;52.30
60848;DHT22;46681;47.696;9.140;2023-02-21T00:29:05;9.60;52.40
60848;DHT22;46681;47.696;9.140;2023-02-21T00:31:31;9.60;52.40
60848;DHT22;46681;47.696;9.140;2023-02-21T00:33:56;9.60;52.30
60848;DHT22;46681;47.696;9.140;2023-02-21T00:36:22;9.60;52.30
60848;DHT22;46681;47.696;9.140;2023-02-21T00:38:47;9.60;52.30
60848;DHT22;46681;47.696;9.140;2023-02-21T00:41:13;9.60;52.30
60848;DHT22;46681;47.696;9.140;2023-02-21T00:43:38;9.60;52.30
60848;DHT22;46681;47.696;9.140;2023-02-21T00:46:04;9.60;52.30
60848;DHT22;46681;47.696;9.140;2023-02-21T00:48:33;9.50;52.40
60848;DHT22;46681;47.696;9.140;2023-02-21T00:50:58;9.50;52.30
60848;DHT22;46681;47.696;9.140;2023-02-21T00:53:24;9.50;52.30
60848;DHT22;46681;47.696;9.140;2023-02-21T00:55:52;9.50;52.20
60848;DHT22;46681;47.696;9.140;2023-02-21T00:58:20;9.50;52.30
60848;DHT22;46681;47.696;9.140;2023-02-21T01:00:46;9.50;52.60
60848;DHT22;46681;47.696;9.140;2023-02-21T01:03:11;9.50;52.10
60848;DHT22;46681;47.696;9.140;2023-02-21T01:05:37;9.50;52.20
60848;DHT22;46681;47.696;9.140;2023-02-21T01:08:03;9.50;52.20
60848;DHT22;46681;47.696;9.140;2023-02-21T01:10:28;9.40;52.10
60848;DHT22;46681;47.696;9.140;2023-02-21T01:12:54;9.40;52.00
60848;DHT22;46681;47.696;9.140;2023-02-21T01:15:19;9.40;52.00
60848;DHT22;46681;47.696;9.140;2023-02-21T01:17:48;9.40;52.00
60848;DHT22;46681;47.696;9.140;2023-02-21T01:20:14;9.40;51.90
60848;DHT22;46681;47.696;9.140;2023-02-21T01:22:40;9.40;52.00
60848;DHT22;46681;47.696;9.140;2023-02-21T01:25:06;9.30;51.90
60848;DHT22;46681;47.696;9.140;2023-02-21T01:27:31;9.40;52.00
60848;DHT22;46681;47.696;9.140;2023-02-21T01:29:57;9.30;51.90
60848;DHT22;46681;47.696;9.140;2023-02-21T01:32:22;9.30;51.90
60848;DHT22;46681;47.696;9.140;2023-02-21T01:34:49;9.30;51.80
60848;DHT22;46681;47.696;9.140;2023-02-21T01:37:15;9.30;51.80
60848;DHT22;46681;47.696;9.140;2023-02-21T01:39:40;9.30;51.90
60848;DHT22;46681;47.696;9.140;2023-02-21T01:42:08;9.30;51.80
60848;DHT22;46681;47.696;9.140;2023-02-21T01:44:39;9.20;51.80
60848;DHT22;46681;47.696;9.140;2023-02-21T01:47:10;9.20;51.80
60848;DHT22;46681;47.696;9.140;2023-02-21T01:49:38;9.20;51.80
60848;DHT22;46681;47.696;9.140;2023-02-21T01:52:04;9.20;51.80
60848;DHT22;46681;47.696;9.140;2023-02-21T01:54:33;9.20;51.70
60848;DHT22;46681;47.696;9.140;2023-02-21T01:57:01;9.20;51.80
60848;DHT22;46681;47.696;9.140;2023-02-21T01:59:28;9.20;51.70
60848;DHT22;46681;47.696;9.140;2023-02-21T02:02:00;9.10;51.70
60848;DHT22;46681;47.696;9.140;2023-02-21T02:04:28;9.10;51.70
60848;DHT22;46681;47.696;9.140;2023-02-21T02:06:53;9.10;51.70
60848;DHT22;46681;47.696;9.140;2023-02-21T02:09:20;9.10;51.70
60848;DHT22;46681;47.696;9.140;2023-02-21T02:23:57;9.00;51.60
60848;DHT22;46681;47.696;9.140;2023-02-21T02:37:32;9.00;51.60
60848;DHT22;46681;47.696;9.140;2023-02-21T02:40:10;9.00;51.60
60848;DHT22;46681;47.696;9.140;2023-02-21T02:45:42;8.90;51.50
60848;DHT22;46681;47.696;9.140;2023-02-21T02:48:30;8.90;51.50
60848;DHT22;46681;47.696;9.140;2023-02-21T02:51:00;8.90;51.40
60848;DHT22;46681;47.696;9.140;2023-02-21T02:53:28;8.90;51.30
60848;DHT22;46681;47.696;9.140;2023-02-21T02:56:02;8.90;51.30
60848;DHT22;46681;47.696;9.140;2023-02-21T02:58:51;8.90;51.40
60848;DHT22;46681;47.696;9.140;2023-02-21T03:15:48;8.90;51.20
60848;DHT22;46681;47.696;9.140;2023-02-21T03:18:23;8.90;51.10
60848;DHT22;46681;47.696;9.140;2023-02-21T03:20:55;8.90;51.20
60848;DHT22;46681;47.696;9.140;2023-02-21T03:23:22;8.90;51.10
60848;DHT22;46681;47.696;9.140;2023-02-21T03:25:50;8.90;51.10
60848;DHT22;46681;47.696;9.140;2023-02-21T03:28:18;8.90;51.00
60848;DHT22;46681;47.696;9.140;2023-02-21T03:30:45;8.90;51.00
60848;DHT22;46681;47.696;9.140;2023-02-21T03:33:12;8.80;50.90
60848;DHT22;46681;47.696;9.140;2023-02-21T03:35:37;8.80;51.00
60848;DHT22;46681;47.696;9.140;2023-02-21T03:38:03;8.80;51.40
60848;DHT22;46681;47.696;9.140;2023-02-21T03:40:31;8.80;51.00
60848;DHT22;46681;47.696;9.140;2023-02-21T03:42:59;8.80;51.00
60848;DHT22;46681;47.696;9.140;2023-02-21T03:45:25;8.80;51.00
60848;DHT22;46681;47.696;9.140;2023-02-21T03:47:50;8.80;50.90
60848;DHT22;46681;47.696;9.140;2023-02-21T03:50:16;8.80;51.00
60848;DHT22;46681;47.696;9.140;2023-02-21T03:52:42;8.80;50.80
60848;DHT22;46681;47.696;9.140;2023-02-21T03:55:09;8.80;50.90
60848;DHT22;46681;47.696;9.140;2023-02-21T03:57:35;8.80;50.90
60848;DHT22;46681;47.696;9.140;2023-02-21T04:00:01;8.80;50.90
60848;DHT22;46681;47.696;9.140;2023-02-21T04:02:28;8.80;50.90
60848;DHT22;46681;47.696;9.140;2023-02-21T04:04:53;8.80;50.90
60848;DHT22;46681;47.696;9.140;2023-02-21T04:07:19;8.70;50.90
60848;DHT22;46681;47.696;9.140;2023-02-21T04:09:47;8.70;51.00
60848;DHT22;46681;47.696;9.140;2023-02-21T04:12:13;8.70;50.90
60848;DHT22;46681;47.696;9.140;2023-02-21T04:14:39;8.70;50.80
60848;DHT22;46681;47.696;9.140;2023-02-21T04:17:05;8.70;50.90
60848;DHT22;46681;47.696;9.140;2023-02-21T04:19:30;8.80;50.90
60848;DHT22;46681;47.696;9.140;2023-02-21T04:21:56;8.70;50.80
60848;DHT22;46681;47.696;9.140;2023-02-21T04:24:21;8.80;51.20
60848;DHT22;46681;47.696;9.140;2023-02-21T04:26:47;8.80;50.80
60848;DHT22;46681;47.696;9.140;2023-02-21T04:29:13;8.70;50.80
60848;DHT22;46681;47.696;9.140;2023-02-21T04:31:41;8.70;50.70
60848;DHT22;46681;47.696;9.140;2023-02-21T04:34:06;8.80;50.70
60848;DHT22;46681;47.696;9.140;2023-02-21T04:36:32;8.70;50.70
60848;DHT22;46681;47.696;9.140;2023-02-21T04:38:58;8.80;50.70
60848;DHT22;46681;47.696;9.140;2023-02-21T04:41:24;8.80;50.60
60848;DHT22;46681;47.696;9.140;2023-02-21T04:43:50;8.80;50.60
60848;DHT22;46681;47.696;9.140;2023-02-21T04:46:18;8.80;50.60
60848;DHT22;46681;47.696;9.140;2023-02-21T04:48:48;8.80;50.50
60848;DHT22;46681;47.696;9.140;2023-02-21T04:51:16;8.80;50.50
60848;DHT22;46681;47.696;9.140;2023-02-21T04:53:49;8.80;50.50
60848;DHT22;46681;47.696;9.140;2023-02-21T04:56:24;8.80;50.40
60848;DHT22;46681;47.696;9.140;2023-02-21T04:58:50;8.80;50.40
60848;DHT22;46681;47.696;9.140;2023-02-21T05:01:27;8.80;50.30
60848;DHT22;46681;47.696;9.140;2023-02-21T05:03:57;8.80;50.30
60848;DHT22;46681;47.696;9.140;2023-02-21T05:06:26;8.80;50.30
60848;DHT22;46681;47.696;9.140;2023-02-21T05:08:53;8.80;50.20
60848;DHT22;46681;47.696;9.140;2023-02-21T05:11:19;8.70;50.20
60848;DHT22;46681;47.696;9.140;2023-02-21T05:13:47;8.70;50.10
60848;DHT22;46681;47.696;9.140;2023-02-21T05:16:13;8.70;50.10
60848;DHT22;46681;47.696;9.140;2023-02-21T05:18:46;8.70;50.10
60848;DHT22;46681;47.696;9.140;2023-02-21T05:21:13;8.70;50.10
60848;DHT22;46681;47.696;9.140;2023-02-21T05:23:42;8.70;50.10
60848;DHT22;46681;47.696;9.140;2023-02-21T05:26:12;8.70;50.20
60848;DHT22;46681;47.696;9.140;2023-02-21T05:28:38;8.70;50.00
60848;DHT22;46681;47.696;9.140;2023-02-21T05:31:09;8.70;50.10
60848;DHT22;46681;47.696;9.140;2023-02-21T05:33:35;8.70;50.00
60848;DHT22;46681;47.696;9.140;2023-02-21T05:36:00;8.70;50.00
60848;DHT22;46681;47.696;9.140;2023-02-21T05:38:26;8.80;49.90
60848;DHT22;46681;47.696;9.140;2023-02-21T05:40:52;8.80;49.90
60848;DHT22;46681;47.696;9.140;2023-02-21T05:43:21;8.70;49.80
60848;DHT22;46681;47.696;9.140;2023-02-21T05:45:46;8.70;49.90
60848;DHT22;46681;47.696;9.140;2023-02-21T05:48:12;8.80;49.80
60848;DHT22;46681;47.696;9.140;2023-02-21T05:50:38;8.80;49.80
60848;DHT22;46681;47.696;9.140;2023-02-21T05:53:04;8.80;49.70
60848;DHT22;46681;47.696;9.140;2023-02-21T05:55:30;8.90;49.80
60848;DHT22;46681;47.696;9.140;2023-02-21T05:57:58;8.80;49.70
60848;DHT22;46681;47.696;9.140;2023-02-21T06:00:33;8.80;49.60
60848;DHT22;46681;47.696;9.140;2023-02-21T06:02:59;8.90;49.70
60848;DHT22;46681;47.696;9.140;2023-02-21T06:05:29;8.80;49.70
60848;DHT22;46681;47.696;9.140;2023-02-21T06:07:55;8.80;49.80
60848;DHT22;46681;47.696;9.140;2023-02-21T06:10:21;8.80;49.90
60848;DHT22;46681;47.696;9.140;2023-02-21T06:12:47;8.70;49.90
60848;DHT22;46681;47.696;9.140;2023-02-21T06:15:14;8.70;49.90
60848;DHT22;46681;47.696;9.140;2023-02-21T06:17:43;8.70;50.00
60848;DHT22;46681;47.696;9.140;2023-02-21T06:20:13;8.70;50.10
60848;DHT22;46681;47.696;9.140;2023-02-21T06:22:39;8.70;50.00
60848;DHT22;46681;47.696;9.140;2023-02-21T06:25:05;8.60;50.10
60848;DHT22;46681;47.696;9.140;2023-02-21T06:27:31;8.60;50.20
60848;DHT22;46681;47.696;9.140;2023-02-21T06:29:58;8.60;50.20
60848;DHT22;46681;47.696;9.140;2023-02-21T06:32:26;8.60;50.10
60848;DHT22;46681;47.696;9.140;2023-02-21T06:34:52;8.60;50.90
60848;DHT22;46681;47.696;9.140;2023-02-21T06:37:18;8.60;50.50
60848;DHT22;46681;47.696;9.140;2023-02-21T06:39:48;8.50;50.50
60848;DHT22;46681;47.696;9.140;2023-02-21T06:42:18;8.50;50.30
60848;DHT22;46681;47.696;9.140;2023-02-21T06:44:47;8.50;50.40
60848;DHT22;46681;47.696;9.140;2023-02-21T06:47:16;8.50;50.30
60848;DHT22;46681;47.696;9.140;2023-02-21T06:49:43;8.50;50.30
60848;DHT22;46681;47.696;9.140;2023-02-21T06:52:13;8.40;50.30
60848;DHT22;46681;47.696;9.140;2023-02-21T06:54:38;8.40;50.40
60848;DHT22;46681;47.696;9.140;2023-02-21T06:57:06;8.40;50.60
60848;DHT22;46681;47.696;9.140;2023-02-21T06:59:33;8.40;50.30
60848;DHT22;46681;47.696;9.140;2023-02-21T07:01:59;8.40;50.30
60848;DHT22;46681;47.696;9.140;2023-02-21T07:04:25;8.40;50.30
60848;DHT22;46681;47.696;9.140;2023-02-21T07:06:56;8.40;50.30
60848;DHT22;46681;47.696;9.140;2023-02-21T07:09:22;8.40;50.30
60848;DHT22;46681;47.696;9.140;2023-02-21T07:11:47;8.40;50.30
60848;DHT22;46681;47.696;9.140;2023-02-21T07:14:28;8.40;50.30
60848;DHT22;46681;47.696;9.140;2023-02-21T07:16:54;8.40;50.80
60848;DHT22;46681;47.696;9.140;2023-02-21T07:19:23;8.50;50.50
60848;DHT22;46681;47.696;9.140;2023-02-21T07:21:50;8.50;50.40
60848;DHT22;46681;47.696;9.140;2023-02-21T07:24:20;8.50;50.80
60848;DHT22;46681;47.696;9.140;2023-02-21T07:26:46;8.50;50.30
60848;DHT22;46681;47.696;9.140;2023-02-21T07:29:13;8.50;50.40
60848;DHT22;46681;47.696;9.140;2023-02-21T07:31:39;8.50;50.30
60848;DHT22;46681;47.696;9.140;2023-02-21T07:34:05;8.50;50.30
60848;DHT22;46681;47.696;9.140;2023-02-21T07:36:32;8.60;50.40
60848;DHT22;46681;47.696;9.140;2023-02-21T07:38:58;8.50;50.30
60848;DHT22;46681;47.696;9.140;2023-02-21T07:41:29;8.60;50.40
60848;DHT22;46681;47.696;9.140;2023-02-21T07:43:54;8.60;50.40
60848;DHT22;46681;47.696;9.140;2023-02-21T07:46:26;8.60;50.40
60848;DHT22;46681;47.696;9.140;2023-02-21T07:48:57;8.60;50.40
60848;DHT22;46681;47.696;9.140;2023-02-21T07:51:30;8.60;50.30
60848;DHT22;46681;47.696;9.140;2023-02-21T07:54:04;8.60;50.30
60848;DHT22;46681;47.696;9.140;2023-02-21T07:56:45;8.70;50.30
60848;DHT22;46681;47.696;9.140;2023-02-21T07:59:16;8.70;50.30
60848;DHT22;46681;47.696;9.140;2023-02-21T08:01:42;8.70;50.30
60848;DHT22;46681;47.696;9.140;2023-02-21T08:04:10;8.70;50.30
60848;DHT22;46681;47.696;9.140;2023-02-21T08:06:36;8.70;50.20
60848;DHT22;46681;47.696;9.140;2023-02-21T08:09:04;8.80;50.30
60848;DHT22;46681;47.696;9.140;2023-02-21T08:11:34;8.80;50.30
60848;DHT22;46681;47.696;9.140;2023-02-21T08:14:00;8.80;50.20
60848;DHT22;46681;47.696;9.140;2023-02-21T08:16:28;8.90;50.30
60848;DHT22;46681;47.696;9.140;2023-02-21T08:19:07;8.90;50.10
60848;DHT22;46681;47.696;9.140;2023-02-21T08:21:43;9.10;50.10
60848;DHT22;46681;47.696;9.140;2023-02-21T08:24:20;9.10;50.00
60848;DHT22;46681;47.696;9.140;2023-02-21T08:26:47;9.30;49.90
60848;DHT22;46681;47.696;9.140;2023-02-21T08:29:13;9.40;49.80
60848;DHT22;46681;47.696;9.140;2023-02-21T08:31:40;9.60;49.70
60848;DHT22;46681;47.696;9.140;2023-02-21T08:34:10;9.70;50.10
60848;DHT22;46681;47.696;9.140;2023-02-21T08:36:50;9.80;50.60
60848;DHT22;46681;47.696;9.140;2023-02-21T08:39:17;9.90;50.20
60848;DHT22;46681;47.696;9.140;2023-02-21T08:41:46;10.10;50.70
60848;DHT22;46681;47.696;9.140;2023-02-21T08:44:18;10.20;50.40
60848;DHT22;46681;47.696;9.140;2023-02-21T08:46:43;10.30;49.90
60848;DHT22;46681;47.696;9.140;2023-02-21T08:49:09;10.50;49.80
60848;DHT22;46681;47.696;9.140;2023-02-21T08:51:39;10.60;49.70
60848;DHT22;46681;47.696;9.140;2023-02-21T08:54:08;10.80;50.00
60848;DHT22;46681;47.696;9.140;2023-02-21T08:56:35;10.90;49.30
60848;DHT22;46681;47.696;9.140;2023-02-21T08:59:02;11.00;50.20
60848;DHT22;46681;47.696;9.140;2023-02-21T09:01:36;11.20;49.70
60848;DHT22;46681;47.696;9.140;2023-02-21T09:04:06;11.30;49.50
60848;DHT22;46681;47.696;9.140;2023-02-21T09:06:36;11.50;49.50
60848;DHT22;46681;47.696;9.140;2023-02-21T09:09:01;11.60;49.20
60848;DHT22;46681;47.696;9.140;2023-02-21T09:11:36;11.80;49.00
60848;DHT22;46681;47.696;9.140;2023-02-21T09:14:08;12.00;48.80
60848;DHT22;46681;47.696;9.140;2023-02-21T09:16:37;12.20;48.60
60848;DHT22;46681;47.696;9.140;2023-02-21T09:19:05;12.40;48.50
60848;DHT22;46681;47.696;9.140;2023-02-21T09:21:35;12.50;48.20
60848;DHT22;46681;47.696;9.140;2023-02-21T09:24:02;12.70;47.90
60848;DHT22;46681;47.696;9.140;2023-02-21T09:26:32;12.90;47.60
60848;DHT22;46681;47.696;9.140;2023-02-21T09:28:57;13.10;47.50
60848;DHT22;46681;47.696;9.140;2023-02-21T09:31:28;13.20;47.30
60848;DHT22;46681;47.696;9.140;2023-02-21T09:33:54;13.40;47.10
60848;DHT22;46681;47.696;9.140;2023-02-21T09:36:23;13.60;47.10
60848;DHT22;46681;47.696;9.140;2023-02-21T09:38:50;13.70;46.80
60848;DHT22;46681;47.696;9.140;2023-02-21T09:41:16;13.90;46.70
60848;DHT22;46681;47.696;9.140;2023-02-21T09:43:50;14.10;46.30
60848;DHT22;46681;47.696;9.140;2023-02-21T09:46:47;14.20;46.00
60848;DHT22;46681;47.696;9.140;2023-02-21T09:49:23;14.40;46.10
60848;DHT22;46681;47.696;9.140;2023-02-21T09:51:51;14.50;45.90
60848;DHT22;46681;47.696;9.140;2023-02-21T09:54:53;14.70;45.80
60848;DHT22;46681;47.696;9.140;2023-02-21T09:57:28;14.90;45.70
60848;DHT22;46681;47.696;9.140;2023-02-21T09:59:53;15.00;45.50
60848;DHT22;46681;47.696;9.140;2023-02-21T10:10:53;15.90;44.80
60848;DHT22;46681;47.696;9.140;2023-02-21T10:13:45;16.10;44.80
60848;DHT22;46681;47.696;9.140;2023-02-21T10:16:26;16.30;44.40
60848;DHT22;46681;47.696;9.140;2023-02-21T10:21:49;16.60;44.00
60848;DHT22;46681;47.696;9.140;2023-02-21T10:24:26;16.70;43.80
60848;DHT22;46681;47.696;9.140;2023-02-21T10:32:27;17.30;43.30
60848;DHT22;46681;47.696;9.140;2023-02-21T10:34:54;17.40;43.30
60848;DHT22;46681;47.696;9.140;2023-02-21T10:42:54;17.90;42.90
60848;DHT22;46681;47.696;9.140;2023-02-21T10:45:39;18.10;42.80
60848;DHT22;46681;47.696;9.140;2023-02-21T10:48:26;18.30;42.60
60848;DHT22;46681;47.696;9.140;2023-02-21T10:51:10;18.50;42.50
60848;DHT22;46681;47.696;9.140;2023-02-21T10:53:42;18.70;42.40
60848;DHT22;46681;47.696;9.140;2023-02-21T10:59:08;18.90;42.10
60848;DHT22;46681;47.696;9.140;2023-02-21T11:01:46;19.10;42.00
60848;DHT22;46681;47.696;9.140;2023-02-21T11:04:32;19.30;41.80
60848;DHT22;46681;47.696;9.140;2023-02-21T11:07:08;19.40;41.90
60848;DHT22;46681;47.696;9.140;2023-02-21T11:09:41;19.50;41.70
60848;DHT22;46681;47.696;9.140;2023-02-21T11:15:16;19.90;41.40
60848;DHT22;46681;47.696;9.140;2023-02-21T11:17:44;20.00;41.30
60848;DHT22;46681;47.696;9.140;2023-02-21T11:20:25;20.10;41.10
60848;DHT22;46681;47.696;9.140;2023-02-21T11:22:55;20.30;41.00
60848;DHT22;46681;47.696;9.140;2023-02-21T11:25:29;20.50;40.90
60848;DHT22;46681;47.696;9.140;2023-02-21T11:28:25;20.50;40.80
60848;DHT22;46681;47.696;9.140;2023-02-21T11:34:05;20.90;40.30
60848;DHT22;46681;47.696;9.140;2023-02-21T11:36:35;21.00;40.40
60848;DHT22;46681;47.696;9.140;2023-02-21T11:42:23;21.40;40.10
60848;DHT22;46681;47.696;9.140;2023-02-21T11:48:12;21.60;40.00
60848;DHT22;46681;47.696;9.140;2023-02-21T11:51:02;21.80;39.80
60848;DHT22;46681;47.696;9.140;2023-02-21T11:53:54;21.90;39.70
60848;DHT22;46681;47.696;9.140;2023-02-21T12:25:19;22.90;38.90
60848;DHT22;46681;47.696;9.140;2023-02-21T12:28:03;23.00;38.90
60848;DHT22;46681;47.696;9.140;2023-02-21T12:31:11;23.00;38.80
60848;DHT22;46681;47.696;9.140;2023-02-21T12:40:16;23.20;38.70
60848;DHT22;46681;47.696;9.140;2023-02-21T12:45:50;23.40;38.70
60848;DHT22;46681;47.696;9.140;2023-02-21T12:48:42;23.40;38.50
60848;DHT22;46681;47.696;9.140;2023-02-21T12:51:34;23.50;38.60
60848;DHT22;46681;47.696;9.140;2023-02-21T12:54:39;23.50;38.40
60848;DHT22;46681;47.696;9.140;2023-02-21T12:58:00;23.60;38.40
60848;DHT22;46681;47.696;9.140;2023-02-21T13:01:13;23.70;38.40
60848;DHT22;46681;47.696;9.140;2023-02-21T13:06:52;23.80;38.30
60848;DHT22;46681;47.696;9.140;2023-02-21T13:18:08;24.00;37.90
60848;DHT22;46681;47.696;9.140;2023-02-21T13:21:01;24.10;38.00
60848;DHT22;46681;47.696;9.140;2023-02-21T13:24:00;24.20;37.90
60848;DHT22;46681;47.696;9.140;2023-02-21T13:29:37;24.30;37.90
60848;DHT22;46681;47.696;9.140;2023-02-21T13:32:28;24.40;37.90
60848;DHT22;46681;47.696;9.140;2023-02-21T13:35:40;24.40;37.80
60848;DHT22;46681;47.696;9.140;2023-02-21T13:38:34;24.40;37.80
60848;DHT22;46681;47.696;9.140;2023-02-21T13:44:08;24.60;37.80
60848;DHT22;46681;47.696;9.140;2023-02-21T13:49:47;24.70;37.60
60848;DHT22;46681;47.696;9.140;2023-02-21T13:52:35;24.70;37.60
60848;DHT22;46681;47.696;9.140;2023-02-21T13:55:22;24.80;37.80
60848;DHT22;46681;47.696;9.140;2023-02-21T14:08:53;24.80;37.70
60848;DHT22;46681;47.696;9.140;2023-02-21T14:11:37;24.70;37.30
60848;DHT22;46681;47.696;9.140;2023-02-21T14:25:20;25.00;37.60
60848;DHT22;46681;47.696;9.140;2023-02-21T14:27:56;25.00;37.60
60848;DHT22;46681;47.696;9.140;2023-02-21T14:39:32;24.90;37.50
60848;DHT22;46681;47.696;9.140;2023-02-21T15:06:17;24.00;37.50
60848;DHT22;46681;47.696;9.140;2023-02-21T15:08:55;23.60;38.10
60848;DHT22;46681;47.696;9.140;2023-02-21T15:17:26;22.70;37.60
60848;DHT22;46681;47.696;9.140;2023-02-21T15:20:15;22.40;38.50
60848;DHT22;46681;47.696;9.140;2023-02-21T15:22:42;22.20;38.40
60848;DHT22;46681;47.696;9.140;2023-02-21T15:25:33;22.00;38.30
60848;DHT22;46681;47.696;9.140;2023-02-21T15:28:30;21.80;38.50
60848;DHT22;46681;47.696;9.140;2023-02-21T15:37:39;21.20;38.50
60848;DHT22;46681;47.696;9.140;2023-02-21T15:40:49;21.10;38.70
60848;DHT22;46681;47.696;9.140;2023-02-21T15:53:27;20.50;39.80
60848;DHT22;46681;47.696;9.140;2023-02-21T15:56:18;20.30;39.80
60848;DHT22;46681;47.696;9.140;2023-02-21T15:59:29;20.20;39.80
60848;DHT22;46681;47.696;9.140;2023-02-21T16:02:20;20.10;40.10
60848;DHT22;46681;47.696;9.140;2023-02-21T16:08:09;19.80;40.20
60848;DHT22;46681;47.696;9.140;2023-02-21T16:11:14;19.70;40.40
60848;DHT22;46681;47.696;9.140;2023-02-21T16:17:27;19.50;40.70
60848;DHT22;46681;47.696;9.140;2023-02-21T16:23:26;19.30;41.00
60848;DHT22;46681;47.696;9.140;2023-02-21T16:29:34;19.10;41.70
60848;DHT22;46681;47.696;9.140;2023-02-21T16:32:31;19.00;42.20
60848;DHT22;46681;47.696;9.140;2023-02-21T16:35:34;18.90;42.80
60848;DHT22;46681;47.696;9.140;2023-02-21T16:38:24;18.80;42.50
60848;DHT22;46681;47.696;9.140;2023-02-21T16:41:00;18.60;43.10
60848;DHT22;46681;47.696;9.140;2023-02-21T16:46:43;18.40;43.50
60848;DHT22;46681;47.696;9.140;2023-02-21T16:49:24;18.30;43.60
60848;DHT22;46681;47.696;9.140;2023-02-21T16:52:03;18.30;43.80
60848;DHT22;46681;47.696;9.140;2023-02-21T16:54:34;18.20;43.90
60848;DHT22;46681;47.696;9.140;2023-02-21T16:57:06;18.00;44.00
60848;DHT22;46681;47.696;9.140;2023-02-21T16:59:36;17.90;44.10
60848;DHT22;46681;47.696;9.140;2023-02-21T17:05:23;17.80;44.60
60848;DHT22;46681;47.696;9.140;2023-02-21T17:08:12;17.60;44.40
60848;DHT22;46681;47.696;9.140;2023-02-21T17:10:55;17.50;44.40
60848;DHT22;46681;47.696;9.140;2023-02-21T17:13:31;17.40;44.60
60848;DHT22;46681;47.696;9.140;2023-02-21T17:16:25;17.30;44.60
60848;DHT22;46681;47.696;9.140;2023-02-21T17:18:56;17.20;44.70
60848;DHT22;46681;47.696;9.140;2023-02-21T17:21:32;17.10;44.80
60848;DHT22;46681;47.696;9.140;2023-02-21T17:24:00;17.00;44.80
60848;DHT22;46681;47.696;9.140;2023-02-21T17:26:31;16.90;45.40
60848;DHT22;46681;47.696;9.140;2023-02-21T17:29:04;16.80;45.10
60848;DHT22;46681;47.696;9.140;2023-02-21T17:34:36;16.60;45.20
60848;DHT22;46681;47.696;9.140;2023-02-21T17:37:05;16.50;45.20
60848;DHT22;46681;47.696;9.140;2023-02-21T17:39:31;16.40;45.30
60848;DHT22;46681;47.696;9.140;2023-02-21T17:42:00;16.40;45.40
60848;DHT22;46681;47.696;9.140;2023-02-21T17:44:26;16.20;45.40
60848;DHT22;46681;47.696;9.140;2023-02-21T17:47:02;16.10;45.60
60848;DHT22;46681;47.696;9.140;2023-02-21T17:49:29;16.10;45.50
60848;DHT22;46681;47.696;9.140;2023-02-21T17:52:03;16.00;45.70
60848;DHT22;46681;47.696;9.140;2023-02-21T17:54:33;15.90;45.70
60848;DHT22;46681;47.696;9.140;2023-02-21T17:56:59;15.80;45.80
60848;DHT22;46681;47.696;9.140;2023-02-21T17:59:33;15.70;45.90
60848;DHT22;46681;47.696;9.140;2023-02-21T18:02:18;15.70;46.00
60848;DHT22;46681;47.696;9.140;2023-02-21T18:05:03;15.50;45.80
60848;DHT22;46681;47.696;9.140;2023-02-21T18:07:38;15.50;46.00
60848;DHT22;46681;47.696;9.140;2023-02-21T18:10:19;15.40;46.20
60848;DHT22;46681;47.696;9.140;2023-02-21T18:12:53;15.30;46.10
60848;DHT22;46681;47.696;9.140;2023-02-21T18:15:45;15.20;46.20
60848;DHT22;46681;47.696;9.140;2023-02-21T18:18:18;15.10;46.30
60848;DHT22;46681;47.696;9.140;2023-02-21T18:20:56;15.10;46.40
60848;DHT22;46681;47.696;9.140;2023-02-21T18:23:32;15.00;46.40
60848;DHT22;46681;47.696;9.140;2023-02-21T18:26:00;14.90;46.50
60848;DHT22;46681;47.696;9.140;2023-02-21T18:28:31;14.90;47.40
60848;DHT22;46681;47.696;9.140;2023-02-21T18:31:03;14.90;47.00
60848;DHT22;46681;47.696;9.140;2023-02-21T18:33:40;14.80;46.80
60848;DHT22;46681;47.696;9.140;2023-02-21T18:36:13;14.70;46.90
60848;DHT22;46681;47.696;9.140;2023-02-21T18:38:50;14.60;47.00
60848;DHT22;46681;47.696;9.140;2023-02-21T18:41:19;14.60;47.00
60848;DHT22;46681;47.696;9.140;2023-02-21T18:43:49;14.50;47.10
60848;DHT22;46681;47.696;9.140;2023-02-21T18:46:24;14.40;47.00
60848;DHT22;46681;47.696;9.140;2023-02-21T18:48:59;14.30;47.10
60848;DHT22;46681;47.696;9.140;2023-02-21T18:51:28;14.30;47.20
60848;DHT22;46681;47.696;9.140;2023-02-21T18:54:02;14.20;47.30
60848;DHT22;46681;47.696;9.140;2023-02-21T18:56:29;14.20;47.40
60848;DHT22;46681;47.696;9.140;2023-02-21T18:59:04;14.10;47.40
60848;DHT22;46681;47.696;9.140;2023-02-21T19:01:31;14.00;47.30
60848;DHT22;46681;47.696;9.140;2023-02-21T19:03:59;13.90;47.30
60848;DHT22;46681;47.696;9.140;2023-02-21T19:06:28;13.90;47.50
60848;DHT22;46681;47.696;9.140;2023-02-21T19:08:56;13.80;47.50
60848;DHT22;46681;47.696;9.140;2023-02-21T19:11:28;13.80;47.50
60848;DHT22;46681;47.696;9.140;2023-02-21T19:14:02;13.80;48.00
60848;DHT22;46681;47.696;9.140;2023-02-21T19:16:29;13.70;47.60
60848;DHT22;46681;47.696;9.140;2023-02-21T19:19:00;13.60;47.50
60848;DHT22;46681;47.696;9.140;2023-02-21T19:21:31;13.60;47.60
60848;DHT22;46681;47.696;9.140;2023-02-21T19:23:56;13.50;47.60
60848;DHT22;46681;47.696;9.140;2023-02-21T19:26:28;13.50;47.70
60848;DHT22;46681;47.696;9.140;2023-02-21T19:28:54;13.40;47.80
60848;DHT22;46681;47.696;9.140;2023-02-21T19:31:27;13.40;47.90
60848;DHT22;46681;47.696;9.140;2023-02-21T19:33:52;13.30;48.00
60848;DHT22;46681;47.696;9.140;2023-02-21T19:36:21;13.20;47.80
60848;DHT22;46681;47.696;9.140;2023-02-21T19:38:48;13.20;47.80
60848;DHT22;46681;47.696;9.140;2023-02-21T19:41:27;13.20;47.90
60848;DHT22;46681;47.696;9.140;2023-02-21T19:43:53;13.10;48.00
60848;DHT22;46681;47.696;9.140;2023-02-21T19:46:29;13.00;48.00
60848;DHT22;46681;47.696;9.140;2023-02-21T19:48:54;13.00;48.10
60848;DHT22;46681;47.696;9.140;2023-02-21T19:51:22;13.00;48.00
60848;DHT22;46681;47.696;9.140;2023-02-21T19:53:54;12.90;48.10
60848;DHT22;46681;47.696;9.140;2023-02-21T19:56:19;12.90;48.10
60848;DHT22;46681;47.696;9.140;2023-02-21T19:59:02;12.80;48.20
60848;DHT22;46681;47.696;9.140;2023-02-21T20:01:48;12.80;48.20
60848;DHT22;46681;47.696;9.140;2023-02-21T20:04:17;12.80;48.20
60848;DHT22;46681;47.696;9.140;2023-02-21T20:06:49;12.70;48.20
60848;DHT22;46681;47.696;9.140;2023-02-21T20:09:19;12.60;48.20